sensor_id;sensor_type;location;lat;lon;timestamp;pressure;altitude;pressure_sealevel;temperature;humidity
10466;BME280;5280;42.600;23.556;2024-01-30T00:00:11;95284.28;;;-0.96;100.00
10466;BME280;5280;42.600;23.556;2024-01-30T00:02:38;95260.97;;;-1.09;100.00
10466;BME280;5280;42.600;23.556;2024-01-30T00:05:05;95298.97;;;-0.90;100.00
10466;BME280;5280;42.600;23.556;2024-01-30T00:07:33;95297.19;;;-0.88;100.00
10466;BME280;5280;42.600;23.556;2024-01-30T00:10:01;95292.88;;;-0.88;100.00
10466;BME280;5280;42.600;23.556;2024-01-30T00:12:27;95277.41;;;-1.06;100.00
10466;BME280;5280;42.600;23.556;2024-01-30T00:14:54;95241.16;;;-1.24;100.00
10466;BME280;5280;42.600;23.556;2024-01-30T00:17:21;95292.03;;;-0.91;100.00
10466;BME280;5280;42.600;23.556;2024-01-30T00:19:48;95299.84;;;-0.96;100.00
10466;BME280;5280;42.600;23.556;2024-01-30T00:22:14;95294.66;;;-0.96;100.00
10466;BME280;5280;42.600;23.556;2024-01-30T00:24:41;95287.78;;;-1.06;100.00
10466;BME280;5280;42.600;23.556;2024-01-30T00:27:09;95298.13;;;-1.03;100.00
10466;BME280;5280;42.600;23.556;2024-01-30T00:29:36;95285.22;;;-1.19;100.00
10466;BME280;5280;42.600;23.556;2024-01-30T00:32:04;95297.31;;;-1.11;100.00
10466;BME280;5280;42.600;23.556;2024-01-30T00:34:33;95279.19;;;-1.20;100.00
10466;BME280;5280;42.600;23.556;2024-01-30T00:37:00;95285.28;;;-1.30;100.00
10466;BME280;5280;42.600;23.556;2024-01-30T00:39:27;95290.41;;;-1.18;100.00
10466;BME280;5280;42.600;23.556;2024-01-30T00:41:53;95289.56;;;-1.20;100.00
10466;BME280;5280;42.600;23.556;2024-01-30T00:44:22;95286.16;;;-1.31;100.00
10466;BME280;5280;42.600;23.556;2024-01-30T00:46:49;95293.00;;;-1.19;100.00
10466;BME280;5280;42.600;23.556;2024-01-30T00:49:15;95287.81;;;-1.19;100.00
10466;BME280;5280;42.600;23.556;2024-01-30T00:51:42;95293.88;;;-1.19;100.00
10466;BME280;5280;42.600;23.556;2024-01-30T00:54:09;95277.47;;;-1.24;100.00
10466;BME280;5280;42.600;23.556;2024-01-30T00:56:36;95291.28;;;-1.19;100.00
10466;BME280;5280;42.600;23.556;2024-01-30T00:59:03;95283.50;;;-1.23;100.00
10466;BME280;5280;42.600;23.556;2024-01-30T01:01:31;95271.44;;;-1.26;100.00
10466;BME280;5280;42.600;23.556;2024-01-30T01:03:58;95272.31;;;-1.27;100.00
10466;BME280;5280;42.600;23.556;2024-01-30T01:06:24;95283.50;;;-1.23;100.00
10466;BME280;5280;42.600;23.556;2024-01-30T01:08:51;95285.25;;;-1.22;100.00
10466;BME280;5280;42.600;23.556;2024-01-30T01:11:18;95288.72;;;-1.28;100.00
10466;BME280;5280;42.600;23.556;2024-01-30T01:13:45;95283.53;;;-1.25;100.00
10466;BME280;5280;42.600;23.556;2024-01-30T01:16:12;95288.72;;;-1.26;100.00
10466;BME280;5280;42.600;23.556;2024-01-30T01:18:40;95289.59;;;-1.29;100.00
10466;BME280;5280;42.600;23.556;2024-01-30T01:21:07;95213.72;;;-1.89;100.00
10466;BME280;5280;42.600;23.556;2024-01-30T01:23:36;95290.44;;;-1.28;100.00
10466;BME280;5280;42.600;23.556;2024-01-30T01:26:03;95282.72;;;-1.42;100.00
10466;BME280;5280;42.600;23.556;2024-01-30T01:28:31;95241.38;;;-1.85;100.00
10466;BME280;5280;42.600;23.556;2024-01-30T01:30:58;95295.69;;;-1.48;100.00
10466;BME280;5280;42.600;23.556;2024-01-30T01:33:30;95277.59;;;-1.60;100.00
10466;BME280;5280;42.600;23.556;2024-01-30T01:35:59;95292.25;;;-1.53;100.00
10466;BME280;5280;42.600;23.556;2024-01-30T01:38:27;95271.56;;;-1.65;100.00
10466;BME280;5280;42.600;23.556;2024-01-30T01:40:55;95291.41;;;-1.52;100.00
10466;BME280;5280;42.600;23.556;2024-01-30T01:43:21;95283.66;;;-1.60;100.00
10466;BME280;5280;42.600;23.556;2024-01-30T01:45:48;95287.09;;;-1.58;100.00
10466;BME280;5280;42.600;23.556;2024-01-30T01:48:15;95265.53;;;-1.74;100.00
10466;BME280;5280;42.600;23.556;2024-01-30T01:50:43;95284.50;;;-1.59;100.00
10466;BME280;5280;42.600;23.556;2024-01-30T01:53:12;95289.69;;;-1.56;100.00
10466;BME280;5280;42.600;23.556;2024-01-30T01:55:39;95304.38;;;-1.51;100.00
10466;BME280;5280;42.600;23.556;2024-01-30T01:58:07;95281.03;;;-1.58;100.00
10466;BME280;5280;42.600;23.556;2024-01-30T02:00:36;95300.00;;;-1.38;100.00
10466;BME280;5280;42.600;23.556;2024-01-30T02:03:05;95278.44;;;-1.51;100.00
10466;BME280;5280;42.600;23.556;2024-01-30T02:05:32;95305.16;;;-1.32;100.00
10466;BME280;5280;42.600;23.556;2024-01-30T02:07:59;95292.19;;;-1.34;100.00
10466;BME280;5280;42.600;23.556;2024-01-30T02:10:27;95242.19;;;-1.64;100.00
10466;BME280;5280;42.600;23.556;2024-01-30T02:12:54;95306.00;;;-1.21;100.00
10466;BME280;5280;42.600;23.556;2024-01-30T02:15:21;95301.66;;;-1.19;100.00
10466;BME280;5280;42.600;23.556;2024-01-30T02:17:47;95293.91;;;-1.20;100.00
10466;BME280;5280;42.600;23.556;2024-01-30T02:20:14;95298.19;;;-1.15;100.00
10466;BME280;5280;42.600;23.556;2024-01-30T02:22:42;95299.88;;;-1.06;100.00
10466;BME280;5280;42.600;23.556;2024-01-30T02:25:09;95260.19;;;-1.28;100.00
10466;BME280;5280;42.600;23.556;2024-01-30T02:27:36;95283.47;;;-1.13;100.00
10466;BME280;5280;42.600;23.556;2024-01-30T02:30:04;95258.44;;;-1.23;100.00
10466;BME280;5280;42.600;23.556;2024-01-30T02:32:31;95279.97;;;-1.04;100.00
10466;BME280;5280;42.600;23.556;2024-01-30T02:34:58;95295.53;;;-0.95;100.00
10466;BME280;5280;42.600;23.556;2024-01-30T02:37:25;95266.16;;;-1.05;100.00
10466;BME280;5280;42.600;23.556;2024-01-30T02:39:53;95254.94;;;-1.10;100.00
10466;BME280;5280;42.600;23.556;2024-01-30T02:42:20;95301.47;;;-0.79;100.00
10466;BME280;5280;42.600;23.556;2024-01-30T02:44:47;95296.28;;;-0.75;100.00
10466;BME280;5280;42.600;23.556;2024-01-30T02:47:13;95300.59;;;-0.71;100.00
10466;BME280;5280;42.600;23.556;2024-01-30T02:49:40;95297.09;;;-0.68;100.00
10466;BME280;5280;42.600;23.556;2024-01-30T02:52:07;95300.56;;;-0.66;100.00
10466;BME280;5280;42.600;23.556;2024-01-30T02:54:35;95282.41;;;-0.74;100.00
10466;BME280;5280;42.600;23.556;2024-01-30T02:57:04;95292.69;;;-0.57;100.00
10466;BME280;5280;42.600;23.556;2024-01-30T02:59:31;95291.00;;;-0.61;100.00
10466;BME280;5280;42.600;23.556;2024-01-30T03:01:58;95301.41;;;-0.67;100.00
10466;BME280;5280;42.600;23.556;2024-01-30T03:04:40;95291.00;;;-0.61;100.00
10466;BME280;5280;42.600;23.556;2024-01-30T03:07:07;95294.50;;;-0.68;100.00
10466;BME280;5280;42.600;23.556;2024-01-30T03:09:34;95244.47;;;-0.95;100.00
10466;BME280;5280;42.600;23.556;2024-01-30T03:12:01;95245.38;;;-1.00;100.00
10466;BME280;5280;42.600;23.556;2024-01-30T03:14:31;95265.13;;;-0.76;100.00
10466;BME280;5280;42.600;23.556;2024-01-30T03:16:58;95289.34;;;-0.70;100.00
10466;BME280;5280;42.600;23.556;2024-01-30T03:19:24;95291.88;;;-0.61;100.00
10466;BME280;5280;42.600;23.556;2024-01-30T03:21:52;95291.00;;;-0.64;100.00
10466;BME280;5280;42.600;23.556;2024-01-30T03:24:19;95290.13;;;-0.60;100.00
10466;BME280;5280;42.600;23.556;2024-01-30T03:26:46;95290.09;;;-0.59;100.00
10466;BME280;5280;42.600;23.556;2024-01-30T03:29:13;95297.00;;;-0.53;100.00
10466;BME280;5280;42.600;23.556;2024-01-30T03:31:41;95275.50;;;-0.70;100.00
10466;BME280;5280;42.600;23.556;2024-01-30T03:34:08;95294.44;;;-0.58;100.00
10466;BME280;5280;42.600;23.556;2024-01-30T03:36:35;95276.28;;;-0.62;100.00
10466;BME280;5280;42.600;23.556;2024-01-30T03:39:02;95275.38;;;-0.58;100.00
10466;BME280;5280;42.600;23.556;2024-01-30T03:41:30;95250.38;;;-0.67;100.00
10466;BME280;5280;42.600;23.556;2024-01-30T03:43:57;95256.44;;;-0.71;100.00
10466;BME280;5280;42.600;23.556;2024-01-30T03:46:24;95272.78;;;-0.55;100.00
10466;BME280;5280;42.600;23.556;2024-01-30T03:48:52;95242.69;;;-0.87;100.00
10466;BME280;5280;42.600;23.556;2024-01-30T03:51:19;95259.81;;;-0.58;100.00
10466;BME280;5280;42.600;23.556;2024-01-30T03:53:46;95267.56;;;-0.52;100.00
10466;BME280;5280;42.600;23.556;2024-01-30T03:56:13;95277.06;;;-0.47;100.00
10466;BME280;5280;42.600;23.556;2024-01-30T03:58:40;95283.13;;;-0.46;100.00
10466;BME280;5280;42.600;23.556;2024-01-30T04:01:12;95246.00;;;-0.60;100.00
10466;BME280;5280;42.600;23.556;2024-01-30T04:03:39;95272.69;;;-0.41;100.00
10466;BME280;5280;42.600;23.556;2024-01-30T04:06:08;95275.31;;;-0.46;100.00
10466;BME280;5280;42.600;23.556;2024-01-30T04:08:35;95280.53;;;-0.46;100.00
10466;BME280;5280;42.600;23.556;2024-01-30T04:11:04;95271.03;;;-0.53;100.00
10466;BME280;5280;42.600;23.556;2024-01-30T04:13:31;95260.72;;;-0.62;100.00
10466;BME280;5280;42.600;23.556;2024-01-30T04:16:01;95273.63;;;-0.53;100.00
10466;BME280;5280;42.600;23.556;2024-01-30T04:18:29;95282.31;;;-0.57;100.00
10466;BME280;5280;42.600;23.556;2024-01-30T04:20:56;95282.31;;;-0.57;100.00
10466;BME280;5280;42.600;23.556;2024-01-30T04:23:24;95253.09;;;-0.88;100.00
10466;BME280;5280;42.600;23.556;2024-01-30T04:25:51;95253.91;;;-0.80;100.00
10466;BME280;5280;42.600;23.556;2024-01-30T04:28:18;95287.50;;;-0.57;100.00
10466;BME280;5280;42.600;23.556;2024-01-30T04:30:45;95276.34;;;-0.70;100.00
10466;BME280;5280;42.600;23.556;2024-01-30T04:33:12;95286.66;;;-0.58;100.00
10466;BME280;5280;42.600;23.556;2024-01-30T04:35:38;95265.94;;;-0.67;100.00
10466;BME280;5280;42.600;23.556;2024-01-30T04:38:05;95259.88;;;-0.66;100.00
10466;BME280;5280;42.600;23.556;2024-01-30T04:40:36;95281.53;;;-0.74;100.00
10466;BME280;5280;42.600;23.556;2024-01-30T04:43:03;95284.97;;;-0.65;100.00
10466;BME280;5280;42.600;23.556;2024-01-30T04:45:30;95289.31;;;-0.74;100.00
10466;BME280;5280;42.600;23.556;2024-01-30T04:47:57;95296.25;;;-0.72;100.00
10466;BME280;5280;42.600;23.556;2024-01-30T04:50:24;95294.69;;;-1.05;100.00
10466;BME280;5280;42.600;23.556;2024-01-30T04:52:52;95282.72;;;-1.42;100.00
10466;BME280;5280;42.600;23.556;2024-01-30T04:55:19;95287.94;;;-1.54;100.00
10466;BME280;5280;42.600;23.556;2024-01-30T04:57:47;95306.94;;;-1.40;100.00
10466;BME280;5280;42.600;23.556;2024-01-30T05:00:17;95298.31;;;-1.47;100.00
10466;BME280;5280;42.600;23.556;2024-01-30T05:02:45;95281.06;;;-1.74;100.00
10466;BME280;5280;42.600;23.556;2024-01-30T05:05:12;95311.31;;;-1.60;100.00
10466;BME280;5280;42.600;23.556;2024-01-30T05:07:41;95311.28;;;-1.51;100.00
10466;BME280;5280;42.600;23.556;2024-01-30T05:10:09;95301.78;;;-1.51;100.00
10466;BME280;5280;42.600;23.556;2024-01-30T05:12:35;95306.94;;;-1.45;100.00
10466;BME280;5280;42.600;23.556;2024-01-30T05:15:04;95300.03;;;-1.50;100.00
10466;BME280;5280;42.600;23.556;2024-01-30T05:17:31;95308.66;;;-1.48;100.00
10466;BME280;5280;42.600;23.556;2024-01-30T05:19:58;95315.56;;;-1.43;100.00
10466;BME280;5280;42.600;23.556;2024-01-30T05:22:26;95299.16;;;-1.49;100.00
10466;BME280;5280;42.600;23.556;2024-01-30T05:24:53;95315.56;;;-1.38;100.00
10466;BME280;5280;42.600;23.556;2024-01-30T05:27:20;95320.75;;;-1.40;100.00
10466;BME280;5280;42.600;23.556;2024-01-30T05:29:46;95324.22;;;-1.42;100.00
10466;BME280;5280;42.600;23.556;2024-01-30T05:32:15;95320.75;;;-1.49;100.00
10466;BME280;5280;42.600;23.556;2024-01-30T05:34:41;95317.34;;;-1.74;100.00
10466;BME280;5280;42.600;23.556;2024-01-30T05:37:08;95326.81;;;-1.54;100.00
10466;BME280;5280;42.600;23.556;2024-01-30T05:39:39;95317.31;;;-1.58;100.00
10466;BME280;5280;42.600;23.556;2024-01-30T05:42:09;95331.16;;;-1.61;100.00
10466;BME280;5280;42.600;23.556;2024-01-30T05:44:36;95325.97;;;-1.56;100.00
10466;BME280;5280;42.600;23.556;2024-01-30T05:47:03;95334.63;;;-1.57;100.00
10466;BME280;5280;42.600;23.556;2024-01-30T05:49:31;95344.13;;;-1.61;100.00
10466;BME280;5280;42.600;23.556;2024-01-30T05:51:58;95328.59;;;-1.65;100.00
10466;BME280;5280;42.600;23.556;2024-01-30T05:54:25;95332.06;;;-1.69;100.00
10466;BME280;5280;42.600;23.556;2024-01-30T05:56:52;95332.91;;;-1.67;100.00
10466;BME280;5280;42.600;23.556;2024-01-30T05:59:19;95336.38;;;-1.76;100.00
10466;BME280;5280;42.600;23.556;2024-01-30T06:01:46;95336.38;;;-1.75;100.00
10466;BME280;5280;42.600;23.556;2024-01-30T06:04:13;95322.56;;;-1.90;100.00
10466;BME280;5280;42.600;23.556;2024-01-30T06:06:42;95336.38;;;-1.93;100.00
10466;BME280;5280;42.600;23.556;2024-01-30T06:09:09;95328.63;;;-1.85;100.00
10466;BME280;5280;42.600;23.556;2024-01-30T06:11:38;95325.13;;;-1.84;100.00
10466;BME280;5280;42.600;23.556;2024-01-30T06:14:06;95310.44;;;-1.84;100.00
10466;BME280;5280;42.600;23.556;2024-01-30T06:16:34;95285.44;;;-2.06;100.00
10466;BME280;5280;42.600;23.556;2024-01-30T06:19:03;95307.00;;;-1.84;100.00
10466;BME280;5280;42.600;23.556;2024-01-30T06:21:31;95300.09;;;-1.84;100.00
10466;BME280;5280;42.600;23.556;2024-01-30T06:24:03;95325.13;;;-1.72;100.00
10466;BME280;5280;42.600;23.556;2024-01-30T06:26:30;95326.88;;;-1.80;100.00
10466;BME280;5280;42.600;23.556;2024-01-30T06:28:57;95329.47;;;-1.76;100.00
10466;BME280;5280;42.600;23.556;2024-01-30T06:31:28;95334.66;;;-1.85;100.00
10466;BME280;5280;42.600;23.556;2024-01-30T06:33:54;95327.72;;;-1.78;100.00
10466;BME280;5280;42.600;23.556;2024-01-30T06:36:21;95310.47;;;-1.91;100.00
10466;BME280;5280;42.600;23.556;2024-01-30T06:38:48;95311.31;;;-1.82;100.00
10466;BME280;5280;42.600;23.556;2024-01-30T06:41:19;95313.91;;;-1.77;100.00
10466;BME280;5280;42.600;23.556;2024-01-30T06:43:46;95320.81;;;-1.84;100.00
10466;BME280;5280;42.600;23.556;2024-01-30T06:46:12;95328.59;;;-1.88;100.00
10466;BME280;5280;42.600;23.556;2024-01-30T06:48:39;95274.22;;;-2.17;100.00
10466;BME280;5280;42.600;23.556;2024-01-30T06:51:06;95345.00;;;-1.65;100.00
10466;BME280;5280;42.600;23.556;2024-01-30T06:53:34;95319.09;;;-1.66;100.00
10466;BME280;5280;42.600;23.556;2024-01-30T06:56:01;95333.75;;;-1.58;100.00
10466;BME280;5280;42.600;23.556;2024-01-30T06:58:29;95333.72;;;-1.47;100.00
10466;BME280;5280;42.600;23.556;2024-01-30T07:00:56;95340.66;;;-1.51;100.00
10466;BME280;5280;42.600;23.556;2024-01-30T07:03:23;95308.72;;;-1.66;100.00
10466;BME280;5280;42.600;23.556;2024-01-30T07:05:50;95343.25;;;-1.55;100.00
10466;BME280;5280;42.600;23.556;2024-01-30T07:08:17;95342.41;;;-1.56;100.00
10466;BME280;5280;42.600;23.556;2024-01-30T07:10:46;95339.78;;;-1.51;100.00
10466;BME280;5280;42.600;23.556;2024-01-30T07:13:13;95332.88;;;-1.51;100.00
10466;BME280;5280;42.600;23.556;2024-01-30T07:15:43;95341.50;;;-1.47;100.00
10466;BME280;5280;42.600;23.556;2024-01-30T07:18:10;95329.41;;;-1.42;100.00
10466;BME280;5280;42.600;23.556;2024-01-30T07:20:38;95342.34;;;-1.36;100.00
10466;BME280;5280;42.600;23.556;2024-01-30T07:23:08;95342.34;;;-1.32;100.00
10466;BME280;5280;42.600;23.556;2024-01-30T07:25:36;95341.50;;;-1.35;100.00
10466;BME280;5280;42.600;23.556;2024-01-30T07:28:04;95341.50;;;-1.41;100.00
10466;BME280;5280;42.600;23.556;2024-01-30T07:30:31;95319.94;;;-1.55;100.00
10466;BME280;5280;42.600;23.556;2024-01-30T07:33:00;95306.09;;;-1.56;100.00
10466;BME280;5280;42.600;23.556;2024-01-30T07:35:27;95323.38;;;-1.50;100.00
10466;BME280;5280;42.600;23.556;2024-01-30T07:37:54;95327.66;;;-1.49;100.00
10466;BME280;5280;42.600;23.556;2024-01-30T07:40:27;95331.16;;;-1.55;100.00
10466;BME280;5280;42.600;23.556;2024-01-30T07:42:54;95338.88;;;-1.38;100.00
10466;BME280;5280;42.600;23.556;2024-01-30T07:45:21;95337.16;;;-1.32;100.00
10466;BME280;5280;42.600;23.556;2024-01-30T07:47:49;95329.38;;;-1.30;100.00
10466;BME280;5280;42.600;23.556;2024-01-30T07:50:18;95326.72;;;-1.19;100.00
10466;BME280;5280;42.600;23.556;2024-01-30T07:52:45;95337.94;;;-1.07;100.00
10466;BME280;5280;42.600;23.556;2024-01-30T07:55:16;95342.25;;;-1.09;100.00
10466;BME280;5280;42.600;23.556;2024-01-30T07:57:45;95328.47;;;-1.15;100.00
10466;BME280;5280;42.600;23.556;2024-01-30T08:00:12;95325.91;;;-1.26;100.00
10466;BME280;5280;42.600;23.556;2024-01-30T08:02:39;95332.75;;;-1.07;100.00
10466;BME280;5280;42.600;23.556;2024-01-30T08:05:09;95318.97;;;-1.15;100.00
10466;BME280;5280;42.600;23.556;2024-01-30T08:07:38;95325.81;;;-1.09;100.00
10466;BME280;5280;42.600;23.556;2024-01-30T08:10:06;95331.03;;;-1.05;100.00
10466;BME280;5280;42.600;23.556;2024-01-30T08:12:33;95322.34;;;-1.01;100.00
10466;BME280;5280;42.600;23.556;2024-01-30T08:15:00;95235.19;;;-1.44;100.00
10466;BME280;5280;42.600;23.556;2024-01-30T08:17:26;95231.75;;;-1.48;100.00
10466;BME280;5280;42.600;23.556;2024-01-30T08:19:53;95297.31;;;-1.12;100.00
10466;BME280;5280;42.600;23.556;2024-01-30T08:22:20;95323.97;;;-0.78;100.00
10466;BME280;5280;42.600;23.556;2024-01-30T08:24:49;95323.94;;;-0.74;100.00
10466;BME280;5280;42.600;23.556;2024-01-30T08:27:16;95321.31;;;-0.68;100.00
10466;BME280;5280;42.600;23.556;2024-01-30T08:29:44;95245.44;;;-1.14;100.00
10466;BME280;5280;42.600;23.556;2024-01-30T08:32:11;95290.22;;;-0.75;100.00
10466;BME280;5280;42.600;23.556;2024-01-30T08:34:38;95331.59;;;-0.48;100.00
10466;BME280;5280;42.600;23.556;2024-01-30T08:37:05;95318.53;;;-0.39;100.00
10466;BME280;5280;42.600;23.556;2024-01-30T08:39:31;95327.09;;;-0.22;100.00
10466;BME280;5280;42.600;23.556;2024-01-30T08:42:00;95324.47;;;-0.16;100.00
10466;BME280;5280;42.600;23.556;2024-01-30T08:44:31;95338.25;;;-0.09;100.00
10466;BME280;5280;42.600;23.556;2024-01-30T08:47:01;95342.59;;;-0.07;100.00
10466;BME280;5280;42.600;23.556;2024-01-30T08:49:28;95345.19;;;-0.10;100.00
10466;BME280;5280;42.600;23.556;2024-01-30T08:51:55;95346.84;;;0.04;100.00
10466;BME280;5280;42.600;23.556;2024-01-30T08:54:23;95331.38;;;-0.15;100.00
10466;BME280;5280;42.600;23.556;2024-01-30T08:56:50;95332.13;;;0.03;100.00
10466;BME280;5280;42.600;23.556;2024-01-30T08:59:19;95346.81;;;0.07;100.00
10466;BME280;5280;42.600;23.556;2024-01-30T09:01:46;95337.34;;;-0.01;100.00
10466;BME280;5280;42.600;23.556;2024-01-30T09:04:13;95332.94;;;0.06;100.00
10466;BME280;5280;42.600;23.556;2024-01-30T09:06:40;95337.19;;;0.18;100.00
10466;BME280;5280;42.600;23.556;2024-01-30T09:09:07;95334.50;;;0.27;100.00
10466;BME280;5280;42.600;23.556;2024-01-30T09:11:35;95328.44;;;0.28;100.00
10466;BME280;5280;42.600;23.556;2024-01-30T09:14:02;95294.72;;;0.19;100.00
10466;BME280;5280;42.600;23.556;2024-01-30T09:16:30;95332.91;;;0.12;100.00
10466;BME280;5280;42.600;23.556;2024-01-30T09:18:57;95315.34;;;0.37;100.00
10466;BME280;5280;42.600;23.556;2024-01-30T09:21:23;95316.94;;;0.53;100.00
10466;BME280;5280;42.600;23.556;2024-01-30T09:23:53;95306.44;;;0.62;100.00
10466;BME280;5280;42.600;23.556;2024-01-30T09:26:20;95320.16;;;0.75;100.00
10466;BME280;5280;42.600;23.556;2024-01-30T09:28:47;95319.31;;;0.74;100.00
10466;BME280;5280;42.600;23.556;2024-01-30T09:31:14;95330.50;;;0.82;100.00
10466;BME280;5280;42.600;23.556;2024-01-30T09:33:42;95321.00;;;0.75;100.00
10466;BME280;5280;42.600;23.556;2024-01-30T09:36:12;95328.81;;;0.78;100.00
10466;BME280;5280;42.600;23.556;2024-01-30T09:38:40;95294.38;;;0.54;100.00
10466;BME280;5280;42.600;23.556;2024-01-30T09:41:09;95310.69;;;0.69;100.00
10466;BME280;5280;42.600;23.556;2024-01-30T09:43:38;95315.00;;;0.72;100.00
10466;BME280;5280;42.600;23.556;2024-01-30T09:46:05;95305.50;;;0.68;100.00
10466;BME280;5280;42.600;23.556;2024-01-30T09:48:33;95314.13;;;0.71;100.00
10466;BME280;5280;42.600;23.556;2024-01-30T09:51:02;95314.00;;;0.83;100.00
10466;BME280;5280;42.600;23.556;2024-01-30T09:53:30;95308.69;;;0.93;100.00
10466;BME280;5280;42.600;23.556;2024-01-30T09:55:58;95303.41;;;0.99;100.00
10466;BME280;5280;42.600;23.556;2024-01-30T09:58:25;95308.63;;;0.99;100.00
10466;BME280;5280;42.600;23.556;2024-01-30T10:00:52;95302.56;;;0.97;100.00
10466;BME280;5280;42.600;23.556;2024-01-30T10:03:19;95305.09;;;1.04;100.00
10466;BME280;5280;42.600;23.556;2024-01-30T10:05:50;95306.91;;;0.98;100.00
10466;BME280;5280;42.600;23.556;2024-01-30T10:08:19;95312.03;;;1.04;100.00
10466;BME280;5280;42.600;23.556;2024-01-30T10:10:46;95307.59;;;1.10;100.00
10466;BME280;5280;42.600;23.556;2024-01-30T10:13:13;95294.44;;;1.24;100.00
10466;BME280;5280;42.600;23.556;2024-01-30T10:15:41;95295.25;;;1.26;100.00
10466;BME280;5280;42.600;23.556;2024-01-30T10:18:08;95296.13;;;1.25;100.00
10466;BME280;5280;42.600;23.556;2024-01-30T10:20:36;95278.03;;;1.16;100.00
10466;BME280;5280;42.600;23.556;2024-01-30T10:23:03;95286.63;;;1.21;100.00
10466;BME280;5280;42.600;23.556;2024-01-30T10:25:32;95271.88;;;1.23;100.00
10466;BME280;5280;42.600;23.556;2024-01-30T10:27:59;95306.41;;;1.36;100.00
10466;BME280;5280;42.600;23.556;2024-01-30T10:30:27;95276.28;;;1.18;100.00
10466;BME280;5280;42.600;23.556;2024-01-30T10:32:54;95292.72;;;1.20;100.00
10466;BME280;5280;42.600;23.556;2024-01-30T10:35:21;95300.50;;;1.24;100.00
10466;BME280;5280;42.600;23.556;2024-01-30T10:37:48;95294.38;;;1.27;100.00
10466;BME280;5280;42.600;23.556;2024-01-30T10:40:15;95290.03;;;1.29;100.00
10466;BME280;5280;42.600;23.556;2024-01-30T10:42:44;95291.72;;;1.32;100.00
10466;BME280;5280;42.600;23.556;2024-01-30T10:45:13;95289.13;;;1.30;100.00
10466;BME280;5280;42.600;23.556;2024-01-30T10:47:43;95288.91;;;1.45;100.00
10466;BME280;5280;42.600;23.556;2024-01-30T10:50:10;95266.53;;;1.34;100.00
10466;BME280;5280;42.600;23.556;2024-01-30T10:52:37;95286.25;;;1.50;100.00
10466;BME280;5280;42.600;23.556;2024-01-30T10:55:05;95293.25;;;1.45;100.00
10466;BME280;5280;42.600;23.556;2024-01-30T10:57:34;95284.63;;;1.41;100.00
10466;BME280;5280;42.600;23.556;2024-01-30T11:00:05;95289.81;;;1.44;100.00
10466;BME280;5280;42.600;23.556;2024-01-30T11:02:36;95278.59;;;1.39;100.00
10466;BME280;5280;42.600;23.556;2024-01-30T11:05:05;95277.03;;;1.26;100.00
10466;BME280;5280;42.600;23.556;2024-01-30T11:07:32;95275.22;;;1.31;100.00
10466;BME280;5280;42.600;23.556;2024-01-30T11:10:03;95273.50;;;1.30;100.00
10466;BME280;5280;42.600;23.556;2024-01-30T11:12:31;95275.16;;;1.36;100.00
10466;BME280;5280;42.600;23.556;2024-01-30T11:15:05;95268.19;;;1.38;100.00
10466;BME280;5280;42.600;23.556;2024-01-30T11:17:49;95263.81;;;1.40;100.00
10466;BME280;5280;42.600;23.556;2024-01-30T11:20:20;95271.41;;;1.55;100.00
10466;BME280;5280;42.600;23.556;2024-01-30T11:22:49;95269.78;;;1.49;100.00
10466;BME280;5280;42.600;23.556;2024-01-30T11:25:19;95267.84;;;1.60;100.00
10466;BME280;5280;42.600;23.556;2024-01-30T11:27:46;95260.16;;;1.53;100.00
10466;BME280;5280;42.600;23.556;2024-01-30T11:30:24;95266.19;;;1.55;100.00
10466;BME280;5280;42.600;23.556;2024-01-30T11:33:01;95259.16;;;1.61;100.00
10466;BME280;5280;42.600;23.556;2024-01-30T11:35:31;95257.44;;;1.60;100.00
10466;BME280;5280;42.600;23.556;2024-01-30T11:37:58;95269.50;;;1.67;100.00
10466;BME280;5280;42.600;23.556;2024-01-30T11:40:26;95250.41;;;1.65;100.00
10466;BME280;5280;42.600;23.556;2024-01-30T11:42:54;95246.69;;;1.80;100.00
10466;BME280;5280;42.600;23.556;2024-01-30T11:45:23;95248.50;;;1.77;100.00
10466;BME280;5280;42.600;23.556;2024-01-30T11:47:49;95250.16;;;1.81;100.00
10466;BME280;5280;42.600;23.556;2024-01-30T11:50:18;95248.25;;;1.92;100.00
10466;BME280;5280;42.600;23.556;2024-01-30T11:52:45;95238.78;;;1.86;100.00
10466;BME280;5280;42.600;23.556;2024-01-30T11:55:12;95242.16;;;1.93;100.00
10466;BME280;5280;42.600;23.556;2024-01-30T11:57:39;95239.47;;;1.99;100.00
10466;BME280;5280;42.600;23.556;2024-01-30T12:00:13;95234.38;;;1.90;100.00
10466;BME280;5280;42.600;23.556;2024-01-30T12:02:42;95220.44;;;1.94;100.00
10466;BME280;5280;42.600;23.556;2024-01-30T12:05:09;95241.91;;;2.06;100.00
10466;BME280;5280;42.600;23.556;2024-01-30T12:07:36;95236.72;;;2.05;100.00
10466;BME280;5280;42.600;23.556;2024-01-30T12:10:03;95226.59;;;1.88;100.00
10466;BME280;5280;42.600;23.556;2024-01-30T12:12:31;95220.63;;;1.80;100.00
10466;BME280;5280;42.600;23.556;2024-01-30T12:14:58;95215.41;;;1.82;100.00
10466;BME280;5280;42.600;23.556;2024-01-30T12:17:28;95228.19;;;1.95;100.00
10466;BME280;5280;42.600;23.556;2024-01-30T12:20:04;95211.06;;;1.82;100.00
10466;BME280;5280;42.600;23.556;2024-01-30T12:22:33;95213.31;;;2.02;100.00
10466;BME280;5280;42.600;23.556;2024-01-30T12:25:00;95153.00;;;1.72;100.00
10466;BME280;5280;42.600;23.556;2024-01-30T12:27:27;95204.56;;;2.06;100.00
10466;BME280;5280;42.600;23.556;2024-01-30T12:29:57;95209.75;;;2.07;100.00
10466;BME280;5280;42.600;23.556;2024-01-30T12:32:24;95191.00;;;1.86;100.00
10466;BME280;5280;42.600;23.556;2024-01-30T12:34:50;95195.94;;;2.01;100.00
10466;BME280;5280;42.600;23.556;2024-01-30T12:37:22;95182.31;;;1.85;100.00
10466;BME280;5280;42.600;23.556;2024-01-30T12:39:51;95189.41;;;1.79;100.00
10466;BME280;5280;42.600;23.556;2024-01-30T12:42:20;95192.03;;;1.77;100.00
10466;BME280;5280;42.600;23.556;2024-01-30T12:44:47;95205.16;;;1.69;100.00
10466;BME280;5280;42.600;23.556;2024-01-30T12:47:14;95167.94;;;1.63;100.00
10466;BME280;5280;42.600;23.556;2024-01-30T12:49:42;95182.44;;;1.79;100.00
10466;BME280;5280;42.600;23.556;2024-01-30T12:52:10;95173.94;;;1.66;100.00
10466;BME280;5280;42.600;23.556;2024-01-30T12:54:38;95173.84;;;1.72;100.00